KSMO/SMO METAR and TAF weather

Enter ICAO airport designator
Station Type Date Time Source
KSMO METAR 2018/12/17 02:05 UTC NOAA

KSMO 170205Z 23005KT 10SM FEW009 17/13 A3014 RMK AO2 T01670128


Station Type Date Time Source
KSMO Decoded METAR 2018/12/17 02:05 UTC NOAA

SANTA MONICA MUNICIPAL AIRPORT , CA, United States (KSMO) 34-01N 118-27W 57M
Dec 16, 2018 - 09:05 PM EST / 2018.12.17 0205 UTC
Wind: from the SW (230 degrees) at 6 MPH (5 KT):0
Visibility: 10 mile(s):0
Sky conditions: mostly clear
Temperature: 62.1 F (16.7 C)
Dew Point: 55.0 F (12.8 C)
Relative Humidity: 77%
Pressure (altimeter): 30.14 in. Hg (1020 hPa)
ob: KSMO 170205Z 23005KT 10SM FEW009 17/13 A3014 RMK AO2 T01670128
cycle: 2

Station Type Date Time Source
KSMO TAF 2018/12/16 18:35 UTC NOAA

TAF KSMO 161735Z 1618/1718 00000KT P6SM SKC
FM162000 23007KT P6SM SCT200
FM170200 VRB03KT P6SM BKN150
FM171300 VRB03KT P6SM VCSH BKN040 OVC080


Example: see airport list